Time;durP1;ratioP1;P1;durP2;ratioP2;P2;SDS_P1;SDS_P2;PMS_P1;PMS_P2;Temp;Humidity;BMP_temperature;BMP_pressure;BME280_temperature;BME280_humidity;BME280_pressure;Samples;Min_cycle;Max_cycle;Signal;HPM_P1;HPM_P2
2021/06/25 00:01:03;;;;;;;13.22;3.95;;;;;;;19.10;76.49;95677.17;1785417;80;21536;-60
2021/06/25 00:03:30;;;;;;;7.70;3.58;;;;;;;19.03;76.42;95681.09;1741206;81;21065;-60
2021/06/25 00:05:57;;;;;;;8.05;4.10;;;;;;;18.97;76.40;95676.03;1737504;81;21035;-60
2021/06/25 00:08:24;;;;;;;10.40;3.70;;;;;;;18.94;76.45;95674.38;1743547;82;21062;-60
2021/06/25 00:10:51;;;;;;;8.85;3.60;;;;;;;19.01;76.45;95667.79;1737420;81;21002;-60
2021/06/25 00:13:18;;;;;;;7.65;3.67;;;;;;;18.98;76.22;95666.61;1786612;80;21109;-60
2021/06/25 00:15:44;;;;;;;10.35;3.90;;;;;;;19.00;76.01;95668.74;1749707;79;21492;-60
2021/06/25 00:18:11;;;;;;;11.05;3.37;;;;;;;19.00;75.95;95674.09;1737358;81;21030;-60
2021/06/25 00:20:38;;;;;;;9.57;3.40;;;;;;;19.02;75.67;95671.32;1737221;81;21057;-60
2021/06/25 00:23:05;;;;;;;10.53;4.00;;;;;;;19.02;76.36;95670.88;1730968;81;21507;-60
2021/06/25 00:25:32;;;;;;;8.68;3.58;;;;;;;19.06;76.00;95672.91;1732275;81;21292;-60
2021/06/25 00:27:59;;;;;;;10.45;4.03;;;;;;;19.08;75.87;95674.18;1745935;81;21484;-60
2021/06/25 00:30:26;;;;;;;11.73;4.42;;;;;;;19.02;75.79;95672.21;1734797;81;21030;-60
2021/06/25 00:32:53;;;;;;;13.70;4.40;;;;;;;18.95;76.26;95675.24;1760837;81;21035;-60
2021/06/25 00:35:20;;;;;;;11.73;3.75;;;;;;;19.01;76.44;95682.97;1773085;80;21024;-60
2021/06/25 00:37:47;;;;;;;8.75;4.30;;;;;;;18.93;76.07;95678.02;1788032;80;21434;-60
2021/06/25 00:40:15;;;;;;;16.30;4.45;;;;;;;18.89;76.09;95674.23;1789693;80;20995;-60
2021/06/25 00:42:42;;;;;;;11.95;4.78;;;;;;;18.87;75.72;95665.41;1733492;81;20990;-60
2021/06/25 00:45:19;;;;;;;14.28;4.55;;;;;;;18.85;75.46;95667.29;1730685;81;21520;-60
2021/06/25 00:47:49;;;;;;;9.45;4.85;;;;;;;18.87;75.64;95665.41;1748450;81;20995;-60
2021/06/25 00:50:20;;;;;;;15.43;4.97;;;;;;;18.84;76.59;95662.42;1759620;80;21021;-60
2021/06/25 00:52:53;;;;;;;11.80;4.75;;;;;;;18.77;75.93;95657.88;1759961;80;21069;-60
2021/06/25 00:55:21;;;;;;;13.13;4.53;;;;;;;18.73;76.49;95661.59;1773097;80;21019;-60
2021/06/25 00:57:49;;;;;;;11.00;4.67;;;;;;;18.63;77.19;95658.98;1790705;80;21046;-60
2021/06/25 01:00:17;;;;;;;14.87;4.40;;;;;;;18.65;77.12;95653.55;1776580;80;21539;-60
2021/06/25 01:02:45;;;;;;;11.35;5.12;;;;;;;18.66;76.88;95665.50;1788170;80;21019;-60
2021/06/25 01:05:14;;;;;;;5.15;3.77;;;;;;;18.66;77.63;95659.30;1781677;80;21035;-60
2021/06/25 01:07:41;;;;;;;14.43;4.57;;;;;;;18.68;76.78;95660.09;1753121;81;21073;-60
2021/06/25 01:10:11;;;;;;;15.08;5.30;;;;;;;18.61;76.66;95651.51;1744751;81;21527;-60
2021/06/25 01:12:43;;;;;;;10.50;4.47;;;;;;;18.55;77.02;95652.68;1741170;81;21568;-60
2021/06/25 01:15:12;;;;;;;15.15;4.85;;;;;;;18.59;77.10;95652.05;1745999;81;21010;-60
2021/06/25 01:17:42;;;;;;;9.93;4.78;;;;;;;18.53;78.03;95659.91;1736900;82;21552;-60
2021/06/25 01:20:16;;;;;;;12.37;5.22;;;;;;;18.54;78.06;95658.09;1749326;81;21057;-60
2021/06/25 01:22:45;;;;;;;11.63;4.33;;;;;;;18.54;77.79;95645.59;1739550;81;21029;-60
2021/06/25 01:25:24;;;;;;;10.05;4.00;;;;;;;18.50;77.02;95645.84;1752360;81;21050;-60
2021/06/25 01:27:58;;;;;;;12.33;4.33;;;;;;;18.46;77.82;95638.91;1753497;81;21067;-60
2021/06/25 01:30:32;;;;;;;8.90;4.35;;;;;;;18.44;77.83;95640.30;1742946;81;21020;-60
2021/06/25 01:33:02;;;;;;;12.55;4.72;;;;;;;18.48;78.01;95645.91;1746874;81;21022;-60
2021/06/25 01:35:29;;;;;;;11.43;4.42;;;;;;;18.49;77.88;95638.27;1750318;81;21050;-60
2021/06/25 01:37:56;;;;;;;17.87;4.47;;;;;;;18.40;77.52;95640.55;1742782;81;21034;-60
2021/06/25 01:40:23;;;;;;;15.90;4.47;;;;;;;18.40;77.67;95641.41;1744512;81;21045;-61
2021/06/25 01:42:51;;;;;;;8.03;3.70;;;;;;;18.43;77.35;95641.25;1743133;81;21454;-60
2021/06/25 01:45:22;;;;;;;11.70;3.80;;;;;;;18.41;76.91;95641.79;1755257;81;21054;-60
2021/06/25 01:47:52;;;;;;;13.20;4.58;;;;;;;18.38;76.64;95641.95;1749497;81;21018;-60
2021/06/25 01:50:22;;;;;;;12.47;3.75;;;;;;;18.38;76.63;95639.28;1757298;81;21007;-60
2021/06/25 01:52:56;;;;;;;8.98;4.28;;;;;;;18.36;76.75;95642.01;1740730;81;21518;-59
2021/06/25 01:55:24;;;;;;;9.48;4.85;;;;;;;18.40;76.71;95637.88;1746051;81;21031;-60
2021/06/25 01:57:52;;;;;;;11.35;3.62;;;;;;;18.34;76.87;95637.69;1746685;81;21014;-60
2021/06/25 02:00:20;;;;;;;6.85;3.75;;;;;;;18.27;76.52;95633.57;1749839;81;21119;-60
2021/06/25 02:02:48;;;;;;;8.48;3.72;;;;;;;18.26;76.77;95627.84;1743247;81;21041;-60
2021/06/25 02:05:16;;;;;;;11.30;4.12;;;;;;;18.19;77.35;95629.94;1746828;81;21529;-60
2021/06/25 02:07:43;;;;;;;12.23;4.45;;;;;;;18.16;77.39;95629.61;1736580;81;21022;-62
2021/06/25 02:10:12;;;;;;;13.32;4.70;;;;;;;18.11;77.70;95624.96;1742724;81;21037;-61
2021/06/25 02:12:40;;;;;;;11.35;4.72;;;;;;;18.12;77.63;95625.86;1736854;81;21089;-60
2021/06/25 02:15:10;;;;;;;10.58;4.17;;;;;;;18.09;77.38;95628.64;1746103;81;20999;-60
2021/06/25 02:17:37;;;;;;;12.65;4.08;;;;;;;18.09;77.23;95629.54;1744647;81;21583;-60
2021/06/25 02:20:07;;;;;;;15.25;4.97;;;;;;;18.02;77.63;95634.77;1742893;81;21002;-60
2021/06/25 02:22:35;;;;;;;18.80;4.50;;;;;;;17.99;77.46;95633.55;1744892;81;21029;-60
2021/06/25 02:25:05;;;;;;;11.70;4.58;;;;;;;17.94;77.42;95635.57;1709001;81;21022;-60
2021/06/25 02:27:31;;;;;;;10.72;4.65;;;;;;;17.92;77.18;95638.33;1745245;81;21025;-60
2021/06/25 02:29:58;;;;;;;12.65;4.30;;;;;;;17.88;77.14;95631.87;1742649;81;21026;-60
2021/06/25 02:32:25;;;;;;;8.43;3.87;;;;;;;17.86;77.67;95624.39;1739300;81;20982;-60
2021/06/25 02:34:52;;;;;;;12.15;4.00;;;;;;;17.85;77.62;95626.68;1751128;81;20974;-60
2021/06/25 02:37:19;;;;;;;11.73;4.33;;;;;;;17.83;77.64;95620.06;1745465;81;21797;-60
2021/06/25 02:39:47;;;;;;;13.78;3.25;;;;;;;17.80;77.21;95616.22;1744409;81;21033;-60
2021/06/25 02:42:13;;;;;;;12.45;3.65;;;;;;;17.85;76.98;95622.67;1742610;81;21053;-61
2021/06/25 02:44:40;;;;;;;10.15;3.30;;;;;;;17.84;76.97;95606.25;1736558;81;21029;-60
2021/06/25 02:47:07;;;;;;;11.70;3.62;;;;;;;17.88;76.94;95603.36;1737466;81;21080;-60
2021/06/25 02:49:34;;;;;;;12.55;4.47;;;;;;;17.87;77.52;95602.13;1746326;81;21026;-60
2021/06/25 02:52:01;;;;;;;12.98;3.85;;;;;;;17.87;77.47;95603.45;1744017;81;20999;-60
2021/06/25 02:54:28;;;;;;;7.50;4.12;;;;;;;17.84;77.50;95596.46;1736473;81;21480;-59
2021/06/25 02:56:54;;;;;;;11.90;4.33;;;;;;;17.86;77.94;95597.23;1747982;81;21007;-60
2021/06/25 02:59:22;;;;;;;10.23;3.62;;;;;;;17.87;77.39;95592.30;1737312;82;20994;-60
2021/06/25 03:01:48;;;;;;;10.55;3.85;;;;;;;17.82;77.81;95589.47;1736589;81;21042;-60
2021/06/25 03:04:15;;;;;;;6.15;3.27;;;;;;;17.84;77.94;95586.23;1739649;81;21476;-60
2021/06/25 03:06:43;;;;;;;8.08;3.35;;;;;;;17.86;77.53;95587.89;1743070;81;21053;-60
2021/06/25 03:09:10;;;;;;;9.10;3.58;;;;;;;17.80;77.47;95580.19;1736532;82;21004;-60
2021/06/25 03:11:37;;;;;;;10.80;3.80;;;;;;;17.81;77.43;95576.56;1746681;81;20986;-60
2021/06/25 03:14:04;;;;;;;11.08;3.20;;;;;;;17.82;77.60;95579.65;1736700;81;21017;-60
2021/06/25 03:16:31;;;;;;;13.80;4.12;;;;;;;17.83;77.78;95574.69;1742027;81;21031;-61
2021/06/25 03:18:58;;;;;;;10.80;3.77;;;;;;;17.85;78.16;95567.48;1751043;81;21487;-60
2021/06/25 03:21:25;;;;;;;11.30;3.52;;;;;;;17.93;78.46;95565.78;1747237;81;21500;-60
2021/06/25 03:23:51;;;;;;;7.17;3.52;;;;;;;17.91;78.63;95562.31;1748988;81;21023;-59
2021/06/25 03:26:18;;;;;;;8.18;3.40;;;;;;;17.99;78.01;95569.48;1745088;81;21034;-60
2021/06/25 03:28:46;;;;;;;12.35;3.70;;;;;;;18.05;78.14;95566.53;1742733;81;21029;-60
2021/06/25 03:31:13;;;;;;;15.18;3.90;;;;;;;18.15;78.34;95566.48;1750274;81;21042;-60
2021/06/25 03:33:40;;;;;;;10.55;3.75;;;;;;;18.30;78.36;95563.53;1740964;81;21073;-60
2021/06/25 03:36:07;;;;;;;14.93;4.17;;;;;;;18.39;77.58;95566.20;1742948;81;20994;-60
2021/06/25 03:38:34;;;;;;;14.13;4.37;;;;;;;18.49;77.41;95569.28;1751268;81;21503;-60
2021/06/25 03:41:01;;;;;;;7.00;3.80;;;;;;;18.51;76.87;95565.59;1742798;81;21047;-60
2021/06/25 03:43:28;;;;;;;9.53;4.30;;;;;;;18.57;76.81;95570.64;1746324;81;21026;-61
2021/06/25 03:45:55;;;;;;;11.05;3.87;;;;;;;18.65;77.10;95576.05;1738177;81;21491;-60
2021/06/25 03:48:22;;;;;;;9.55;4.17;;;;;;;18.75;77.57;95568.88;1747082;81;21023;-60
2021/06/25 03:50:49;;;;;;;9.48;3.70;;;;;;;18.85;77.33;95579.07;1745769;81;21019;-60
2021/06/25 03:53:17;;;;;;;8.58;3.70;;;;;;;18.87;76.68;95576.71;1748746;81;20999;-60
2021/06/25 03:58:30;;;;;;;14.93;4.08;;;;;;;19.09;76.87;95571.59;1748796;81;21016;-60
2021/06/25 04:00:57;;;;;;;11.40;3.35;;;;;;;19.24;76.94;95568.11;1742379;81;20991;-60
2021/06/25 04:03:24;;;;;;;9.00;4.05;;;;;;;19.42;76.91;95568.45;1760171;81;20999;-60
2021/06/25 04:05:51;;;;;;;8.38;4.35;;;;;;;19.56;76.33;95569.55;1751008;81;21035;-60
2021/06/25 04:08:23;;;;;;;14.25;4.50;;;;;;;19.69;76.03;95557.72;1744638;81;21053;-60
2021/06/25 04:10:49;;;;;;;10.70;4.47;;;;;;;19.81;75.49;95555.71;1737991;81;21544;-61
2021/06/25 04:13:16;;;;;;;13.75;4.37;;;;;;;19.85;74.46;95559.92;1745884;81;21527;-60
2021/06/25 04:15:43;;;;;;;17.20;4.78;;;;;;;19.94;73.53;95561.24;1749191;81;21552;-61
2021/06/25 04:18:10;;;;;;;15.50;5.20;;;;;;;19.95;73.32;95565.16;1743262;81;21085;-60
2021/06/25 04:20:37;;;;;;;13.13;4.67;;;;;;;20.09;73.16;95571.09;1743250;81;21054;-59
2021/06/25 04:23:03;;;;;;;10.60;4.40;;;;;;;20.09;73.16;95571.09;1747522;81;21043;-60
2021/06/25 04:25:30;;;;;;;14.93;4.72;;;;;;;20.14;74.03;95573.03;1751607;81;21067;-60
2021/06/25 04:27:57;;;;;;;11.40;4.65;;;;;;;20.18;74.36;95566.53;1743087;81;20994;-60
2021/06/25 04:30:24;;;;;;;10.98;4.85;;;;;;;20.21;73.44;95565.48;1750994;81;21050;-61
2021/06/25 04:32:51;;;;;;;13.55;4.97;;;;;;;20.36;73.25;95568.66;1747201;81;21058;-63
2021/06/25 04:35:18;;;;;;;16.27;5.50;;;;;;;20.36;73.25;95568.66;1758964;81;21795;-63
2021/06/25 04:37:45;;;;;;;13.60;5.87;;;;;;;20.50;73.52;95567.36;1748922;81;21022;-62
2021/06/25 04:40:13;;;;;;;13.30;5.25;;;;;;;20.62;73.48;95564.48;1746090;81;21019;-62
2021/06/25 04:42:40;;;;;;;10.78;4.72;;;;;;;20.73;73.58;95563.36;1751285;81;20966;-61
2021/06/25 04:45:09;;;;;;;12.07;4.92;;;;;;;20.85;73.88;95567.63;1742849;81;21021;-61
2021/06/25 04:47:36;;;;;;;12.88;4.67;;;;;;;20.96;73.27;95566.49;1746526;81;21014;-61
2021/06/25 04:50:05;;;;;;;12.37;4.58;;;;;;;21.04;72.49;95570.05;1745959;81;21102;-61
2021/06/25 04:52:32;;;;;;;10.08;4.08;;;;;;;21.06;70.99;95569.00;1737151;81;21013;-61
2021/06/25 04:54:58;;;;;;;11.88;4.00;;;;;;;21.13;70.86;95569.02;1754161;81;21058;-61
2021/06/25 04:57:26;;;;;;;10.72;4.35;;;;;;;21.23;70.99;95574.70;1753108;81;20992;-61
2021/06/25 04:59:53;;;;;;;13.38;3.80;;;;;;;21.42;70.48;95568.22;1743979;81;21010;-62
2021/06/25 05:02:20;;;;;;;12.68;4.37;;;;;;;21.65;70.24;95570.36;1743117;81;21031;-62
2021/06/25 05:04:46;;;;;;;11.73;4.58;;;;;;;21.86;67.96;95561.41;1736701;81;21024;-60
2021/06/25 05:07:13;;;;;;;12.93;4.92;;;;;;;22.03;68.72;95563.88;1748735;81;21054;-63
2021/06/25 05:09:40;;;;;;;12.95;4.83;;;;;;;22.25;69.35;95570.12;1750906;81;20990;-59
2021/06/25 05:12:08;;;;;;;15.75;5.15;;;;;;;22.46;69.09;95564.29;1737815;81;21058;-60
2021/06/25 05:14:35;;;;;;;21.10;5.53;;;;;;;22.65;68.91;95578.70;1746117;81;21018;-60
2021/06/25 05:17:03;;;;;;;20.40;5.90;;;;;;;22.86;68.41;95577.28;1738998;81;21011;-61
2021/06/25 05:19:30;;;;;;;18.10;6.00;;;;;;;23.01;68.00;95575.91;1745331;81;21033;-60
2021/06/25 05:21:57;;;;;;;15.32;5.92;;;;;;;23.11;67.35;95576.50;1757253;81;21046;-60
2021/06/25 05:24:24;;;;;;;16.62;6.03;;;;;;;23.21;67.30;95574.05;1753308;81;21026;-60
2021/06/25 05:26:51;;;;;;;16.17;5.87;;;;;;;23.30;67.77;95573.88;1742850;81;21528;-60
2021/06/25 05:29:18;;;;;;;16.45;7.05;;;;;;;23.41;67.84;95567.28;1743783;81;21022;-60
2021/06/25 05:31:45;;;;;;;22.50;7.78;;;;;;;23.53;67.27;95568.23;1753270;81;21524;-60
2021/06/25 05:34:12;;;;;;;15.80;6.83;;;;;;;23.63;67.19;95567.95;1742764;81;21024;-60
2021/06/25 05:36:39;;;;;;;19.60;7.22;;;;;;;23.73;67.16;95560.12;1736542;81;21522;-60
2021/06/25 05:39:06;;;;;;;20.15;7.20;;;;;;;23.83;67.36;95558.98;1746700;81;21015;-60
2021/06/25 05:41:32;;;;;;;18.65;7.55;;;;;;;23.93;67.28;95558.69;1742760;81;21141;-60
2021/06/25 05:43:59;;;;;;;18.55;6.85;;;;;;;24.05;67.19;95559.16;1748539;81;21060;-60
2021/06/25 05:46:26;;;;;;;19.75;7.10;;;;;;;24.18;66.21;95560.47;1747044;81;21039;-60
2021/06/25 05:48:53;;;;;;;18.98;6.97;;;;;;;24.31;66.29;95560.42;1748731;81;21028;-60
2021/06/25 05:51:20;;;;;;;19.07;6.87;;;;;;;24.46;65.01;95560.67;1744786;81;21025;-60
2021/06/25 05:53:47;;;;;;;30.90;8.03;;;;;;;24.56;64.13;95567.59;1741543;81;21034;-61
2021/06/25 05:56:13;;;;;;;19.90;8.00;;;;;;;24.65;63.94;95560.17;1749723;81;21030;-61
2021/06/25 05:58:40;;;;;;;22.42;7.95;;;;;;;24.83;64.42;95568.22;1743090;81;21015;-60
2021/06/25 06:01:07;;;;;;;18.12;7.80;;;;;;;25.00;64.86;95568.80;1740455;81;21472;-60
2021/06/25 06:03:34;;;;;;;25.75;8.43;;;;;;;25.17;64.01;95560.27;1746918;81;21020;-60
2021/06/25 06:06:02;;;;;;;23.35;6.87;;;;;;;25.36;63.90;95562.91;1740762;81;21496;-60
2021/06/25 06:08:29;;;;;;;36.95;9.13;;;;;;;25.52;63.61;95559.86;1742435;81;21797;-60
2021/06/25 06:10:56;;;;;;;33.48;8.78;;;;;;;25.66;63.35;95562.34;1740084;81;21055;-61
2021/06/25 06:13:23;;;;;;;32.83;8.40;;;;;;;25.82;62.60;95554.72;1747042;81;21010;-60
2021/06/25 06:15:51;;;;;;;47.23;8.13;;;;;;;26.00;61.39;95554.27;1742904;81;20994;-60
2021/06/25 06:18:26;;;;;;;30.37;7.60;;;;;;;26.19;61.14;95567.17;1743856;81;20981;-61
2021/06/25 06:20:50;;;;;;;30.43;7.87;;;;;;;26.37;58.96;95562.11;1742194;81;21014;-62
2021/06/25 06:31:33;;;;;;;20.97;8.18;;;;;;;26.86;57.55;95582.41;1749101;81;21097;-61
2021/06/25 06:34:10;;;;;;;21.68;7.67;;;;;;;27.02;57.40;95577.45;1738015;81;21488;-60
2021/06/25 06:36:45;;;;;;;18.48;6.90;;;;;;;27.15;56.96;95570.49;1742446;81;21047;-61
2021/06/25 06:39:14;;;;;;;24.70;6.22;;;;;;;27.27;56.28;95570.84;1745110;81;21023;-63
2021/06/25 06:41:42;;;;;;;25.30;6.80;;;;;;;27.38;55.10;95573.97;1741777;81;21557;-60
2021/06/25 06:44:09;;;;;;;17.48;5.67;;;;;;;27.31;53.32;95572.27;1730167;81;20978;-59
2021/06/25 06:46:36;;;;;;;26.20;6.87;;;;;;;27.36;53.98;95574.59;1736210;81;21042;-60
2021/06/25 06:49:04;;;;;;;22.55;5.83;;;;;;;27.53;54.54;95578.06;1728801;82;21062;-60
2021/06/25 06:51:31;;;;;;;17.52;5.62;;;;;;;27.59;53.72;95575.31;1715898;81;21106;-58
2021/06/25 06:54:00;;;;;;;20.95;5.90;;;;;;;27.69;53.55;95567.24;1751665;81;21023;-59
2021/06/25 06:56:28;;;;;;;16.07;5.35;;;;;;;27.90;54.21;95563.20;1755804;81;20997;-61
2021/06/25 06:58:55;;;;;;;18.62;5.75;;;;;;;28.12;52.84;95562.98;1800469;78;20994;-62
2021/06/25 07:01:24;;;;;;;16.73;5.62;;;;;;;28.32;53.22;95558.48;1712220;82;21033;-60
2021/06/25 07:03:51;;;;;;;16.90;6.00;;;;;;;28.48;51.78;95554.80;1729650;81;20998;-59
2021/06/25 07:06:17;;;;;;;23.12;6.70;;;;;;;28.65;51.25;95557.81;1760979;81;21034;-59
2021/06/25 07:08:45;;;;;;;18.10;6.47;;;;;;;28.85;51.08;95562.30;1785234;79;21041;-59
2021/06/25 07:11:12;;;;;;;20.45;6.97;;;;;;;29.01;52.33;95561.73;1781217;79;20986;-59
2021/06/25 07:13:39;;;;;;;20.30;6.53;;;;;;;29.05;52.21;95555.50;1784151;79;21104;-59
2021/06/25 07:16:06;;;;;;;22.25;6.28;;;;;;;28.97;50.70;95550.78;1797980;79;21104;-60
2021/06/25 07:18:33;;;;;;;15.78;6.33;;;;;;;28.96;51.84;95548.22;1786215;79;20971;-60
2021/06/25 07:21:00;;;;;;;16.50;6.35;;;;;;;28.81;52.29;95543.20;1784710;79;21014;-60
2021/06/25 07:23:27;;;;;;;17.85;6.15;;;;;;;28.75;53.04;95541.03;1768605;79;21057;-59
2021/06/25 07:25:54;;;;;;;25.30;6.42;;;;;;;28.66;53.80;95540.03;1783059;79;21511;-60
2021/06/25 07:28:20;;;;;;;15.72;5.92;;;;;;;28.64;53.95;95535.24;1797172;79;20997;-59
2021/06/25 07:30:47;;;;;;;18.98;5.85;;;;;;;28.69;54.21;95541.11;1776564;79;21539;-59
2021/06/25 07:33:14;;;;;;;19.37;5.75;;;;;;;28.83;54.06;95533.56;1799869;79;21000;-59
2021/06/25 07:35:41;;;;;;;20.70;6.92;;;;;;;29.01;53.50;95537.28;1772596;79;21520;-59
2021/06/25 07:38:08;;;;;;;23.73;6.87;;;;;;;29.17;53.86;95529.94;1791937;79;20970;-59
2021/06/25 07:40:35;;;;;;;18.70;5.78;;;;;;;29.31;51.54;95531.37;1777262;79;21019;-59
2021/06/25 07:43:02;;;;;;;26.85;6.67;;;;;;;29.42;52.86;95531.70;1791418;79;21069;-59
2021/06/25 07:45:29;;;;;;;20.95;6.62;;;;;;;29.46;52.32;95539.42;1787078;79;20994;-59
2021/06/25 07:47:55;;;;;;;29.25;7.42;;;;;;;29.32;52.47;95549.37;1797757;79;21128;-59
2021/06/25 07:50:23;;;;;;;22.00;6.58;;;;;;;29.23;52.92;95548.40;1787055;79;21054;-59
2021/06/25 07:52:50;;;;;;;22.93;7.10;;;;;;;29.22;54.11;95545.30;1793955;79;21029;-60
2021/06/25 07:55:17;;;;;;;21.52;7.47;;;;;;;29.18;54.77;95537.11;1774613;79;21058;-59
2021/06/25 07:57:44;;;;;;;19.73;6.95;;;;;;;29.11;55.76;95539.53;1789443;79;21033;-59
2021/06/25 08:00:13;;;;;;;20.25;7.28;;;;;;;29.05;55.70;95538.72;1791694;79;21488;-59
2021/06/25 08:02:41;;;;;;;26.27;7.75;;;;;;;29.11;55.57;95539.53;1790740;79;21049;-59
2021/06/25 08:05:09;;;;;;;24.07;7.00;;;;;;;29.30;53.09;95540.00;1799192;79;20982;-59
2021/06/25 08:07:36;;;;;;;25.12;7.37;;;;;;;29.47;53.18;95537.05;1799336;79;20994;-59
2021/06/25 08:10:05;;;;;;;25.30;7.47;;;;;;;29.79;54.35;95530.91;1799274;79;20978;-59
2021/06/25 08:12:34;;;;;;;32.65;7.33;;;;;;;30.01;54.14;95538.70;1793875;79;21009;-59
2021/06/25 08:15:01;;;;;;;26.93;7.17;;;;;;;30.08;54.42;95542.55;1801062;79;20998;-59
2021/06/25 08:17:27;;;;;;;22.20;7.10;;;;;;;30.01;53.66;95537.86;1799145;79;21018;-59
2021/06/25 08:19:54;;;;;;;20.40;7.30;;;;;;;29.92;52.72;95540.98;1763365;81;21038;-59
2021/06/25 08:22:21;;;;;;;27.67;7.28;;;;;;;29.94;52.98;95543.05;1762856;81;21074;-59
2021/06/25 08:24:49;;;;;;;27.50;8.03;;;;;;;29.96;51.81;95545.09;1763443;81;21477;-59
2021/06/25 08:27:15;;;;;;;34.20;8.45;;;;;;;29.90;49.36;95541.63;1757971;81;21006;-59
2021/06/25 08:29:42;;;;;;;25.05;7.42;;;;;;;30.07;49.87;95541.36;1758251;81;21113;-59
2021/06/25 08:32:09;;;;;;;33.90;9.88;;;;;;;30.32;50.43;95541.20;1763035;81;21025;-59
2021/06/25 08:34:36;;;;;;;43.00;9.58;;;;;;;30.37;47.15;95539.73;1765339;81;21041;-59
2021/06/25 08:37:03;;;;;;;34.03;9.05;;;;;;;30.67;48.81;95549.08;1763701;81;21535;-59
2021/06/25 08:39:30;;;;;;;34.70;9.20;;;;;;;30.87;47.85;95549.36;1758357;81;21006;-59
2021/06/25 08:42:02;;;;;;;35.68;9.20;;;;;;;30.85;47.11;95554.09;1759822;81;21011;-60
2021/06/25 08:44:35;;;;;;;38.20;10.38;;;;;;;30.71;46.99;95554.58;1745799;81;21015;-59
2021/06/25 08:47:02;;;;;;;30.30;10.08;;;;;;;30.58;47.71;95548.98;1763856;81;21026;-59
2021/06/25 08:49:29;;;;;;;39.90;10.28;;;;;;;30.47;48.87;95558.74;1763194;81;21053;-59
2021/06/25 08:51:56;;;;;;;34.80;10.48;;;;;;;30.36;49.64;95551.61;1761649;81;21148;-60
2021/06/25 08:54:23;;;;;;;30.62;9.45;;;;;;;30.36;50.49;95549.41;1765586;81;21018;-59
2021/06/25 08:56:50;;;;;;;27.05;10.43;;;;;;;30.66;49.94;95551.45;1763672;81;21526;-60
2021/06/25 08:59:20;;;;;;;39.60;10.53;;;;;;;30.97;50.26;95558.31;1763418;81;21002;-61
2021/06/25 09:01:51;;;;;;;48.10;10.45;;;;;;;31.22;49.32;95551.23;1763248;81;21010;-60
2021/06/25 09:04:41;;;;;;;35.98;10.80;;;;;;;31.43;49.36;95559.61;1763391;81;20978;-60
2021/06/25 09:07:11;;;;;;;25.85;9.78;;;;;;;31.55;49.37;95558.83;1763169;81;21006;-60
2021/06/25 09:09:43;;;;;;;40.88;10.72;;;;;;;31.61;48.87;95561.80;1758547;81;21456;-60
2021/06/25 09:12:23;;;;;;;31.75;10.70;;;;;;;31.81;49.20;95561.09;1765223;81;21022;-60
2021/06/25 09:15:11;;;;;;;38.28;10.25;;;;;;;32.05;48.67;95554.09;1763407;81;21027;-60
2021/06/25 09:18:02;;;;;;;34.95;10.63;;;;;;;32.26;47.38;95555.93;1761782;81;21018;-60
2021/06/25 09:20:44;;;;;;;36.77;10.08;;;;;;;32.36;46.36;95557.66;1764839;81;21076;-60
2021/06/25 09:23:31;;;;;;;;;;;;;;;32.60;46.39;95548.75;1763850;81;21022;-60
2021/06/25 09:26:04;;;;;;;31.60;10.35;;;;;;;32.75;44.88;95553.41;1731611;81;20129;-60
2021/06/25 09:28:39;;;;;;;33.18;10.18;;;;;;;33.02;45.42;95549.22;1761731;81;21072;-60
2021/06/25 09:31:26;;;;;;;33.55;9.48;;;;;;;33.25;45.97;95546.71;1762673;81;21034;-60
2021/06/25 09:33:55;;;;;;;40.70;9.80;;;;;;;33.48;44.48;95549.10;1762677;81;21017;-59
2021/06/25 09:36:26;;;;;;;39.20;10.15;;;;;;;33.72;44.60;95548.77;1764800;81;21045;-60
2021/06/25 09:39:10;;;;;;;41.63;10.05;;;;;;;33.96;44.87;95546.52;1764528;81;21590;-60
2021/06/25 09:41:43;;;;;;;32.83;9.65;;;;;;;34.02;39.60;95536.23;1764585;81;21079;-59
2021/06/25 09:44:17;;;;;;;29.55;8.45;;;;;;;34.18;41.65;95534.02;1764464;81;20982;-60
2021/06/25 09:46:47;;;;;;;42.88;7.67;;;;;;;34.33;39.97;95532.77;1759910;81;21002;-60
2021/06/25 09:49:16;;;;;;;38.25;7.78;;;;;;;34.36;38.15;95533.26;1763058;81;20997;-60
2021/06/25 09:51:59;;;;;;;50.65;8.60;;;;;;;34.44;37.45;95529.63;1763265;81;20986;-60
2021/06/25 09:54:27;;;;;;;35.40;6.55;;;;;;;34.58;36.22;95533.03;1759496;81;21065;-60
2021/06/25 10:02:33;;;;;;;36.48;5.80;;;;;;;34.38;33.36;95531.20;1761641;81;21519;-60
2021/06/25 10:05:13;;;;;;;38.58;6.25;;;;;;;34.13;32.12;95532.33;1763630;81;21041;-60
2021/06/25 10:07:40;;;;;;;33.02;6.15;;;;;;;34.24;32.27;95531.41;1764572;81;21025;-60
2021/06/25 10:10:10;;;;;;;31.33;5.95;;;;;;;34.42;31.04;95536.67;1764744;81;21037;-60
2021/06/25 10:12:45;;;;;;;32.58;5.75;;;;;;;34.54;29.86;95534.91;1764732;81;21517;-60
2021/06/25 10:15:13;;;;;;;39.92;6.22;;;;;;;34.57;28.92;95533.17;1761946;81;21054;-59
2021/06/25 10:17:42;;;;;;;34.40;6.22;;;;;;;34.62;29.94;95537.11;1719572;82;21133;-60
2021/06/25 10:20:12;;;;;;;33.92;6.00;;;;;;;34.83;31.19;95539.77;1705451;83;21038;-61
2021/06/25 10:22:49;;;;;;;32.13;5.85;;;;;;;34.98;30.53;95541.20;1757411;81;21061;-60
2021/06/25 10:25:17;;;;;;;31.85;5.72;;;;;;;34.94;32.19;95537.98;1760380;81;21003;-59
2021/06/25 10:27:47;;;;;;;33.80;7.17;;;;;;;35.10;31.12;95529.69;1758417;81;21030;-60
2021/06/25 10:30:15;;;;;;;33.88;6.65;;;;;;;35.19;31.26;95531.00;1764353;81;21057;-60
2021/06/25 10:32:43;;;;;;;36.35;6.15;;;;;;;35.36;30.17;95540.81;1750917;81;21023;-60
2021/06/25 10:35:12;;;;;;;40.63;6.30;;;;;;;35.33;30.96;95539.30;1750744;81;21034;-60
2021/06/25 10:37:41;;;;;;;29.52;5.53;;;;;;;35.37;31.11;95537.55;1733854;81;21015;-61
2021/06/25 10:40:26;;;;;;;33.48;6.78;;;;;;;35.48;30.77;95537.09;1724498;81;21038;-60
2021/06/25 10:42:56;;;;;;;33.75;5.67;;;;;;;35.65;30.33;95535.95;1725913;82;21061;-60
2021/06/25 10:45:43;;;;;;;30.48;5.92;;;;;;;35.79;29.90;95531.55;1758971;81;21042;-60
2021/06/25 10:48:10;;;;;;;36.53;6.42;;;;;;;35.94;29.31;95530.21;1765505;81;21059;-60
2021/06/25 10:50:38;;;;;;;32.40;5.95;;;;;;;36.07;29.92;95524.06;1754359;81;21038;-61
2021/06/25 10:53:13;;;;;;;36.65;6.65;;;;;;;36.14;29.63;95514.91;1744861;81;21527;-61
2021/06/25 10:55:47;;;;;;;29.18;5.97;;;;;;;36.21;30.88;95523.23;1739490;81;21023;-60
2021/06/25 10:58:23;;;;;;;24.87;5.25;;;;;;;36.27;29.65;95512.88;1756429;81;21030;-60
2021/06/25 11:00:57;;;;;;;29.15;5.72;;;;;;;36.22;30.81;95504.35;1756339;81;21062;-61
2021/06/25 11:03:36;;;;;;;26.30;6.17;;;;;;;35.97;29.68;95501.00;1754717;81;21069;-60
2021/06/25 11:06:10;;;;;;;28.05;5.37;;;;;;;36.02;29.76;95504.55;1736123;81;21632;-60
2021/06/25 11:08:57;;;;;;;31.75;5.58;;;;;;;36.29;27.85;95501.18;1752186;81;20999;-60
2021/06/25 11:11:28;;;;;;;31.80;5.45;;;;;;;35.85;26.58;95500.59;1763305;81;21066;-60
2021/06/25 11:13:55;;;;;;;29.65;5.87;;;;;;;35.96;28.83;95510.25;1748636;81;21038;-60
2021/06/25 11:16:22;;;;;;;32.88;5.40;;;;;;;36.29;27.37;95509.42;1724415;81;21549;-60
2021/06/25 11:18:48;;;;;;;26.00;5.47;;;;;;;36.58;28.33;95514.58;1737022;80;21552;-60
2021/06/25 11:21:15;;;;;;;29.18;5.78;;;;;;;36.75;28.08;95509.20;1735916;81;21015;-60
2021/06/25 11:23:45;;;;;;;24.70;4.95;;;;;;;36.87;28.08;95508.68;1754315;81;21074;-60
2021/06/25 11:26:23;;;;;;;30.12;5.45;;;;;;;36.80;26.53;95508.09;1726472;81;21010;-60
2021/06/25 11:28:56;;;;;;;36.55;5.33;;;;;;;36.77;26.49;95500.77;1725044;81;21042;-60
2021/06/25 11:31:26;;;;;;;31.80;5.40;;;;;;;36.80;27.25;95503.13;1721742;81;21536;-61
2021/06/25 11:34:04;;;;;;;26.87;5.85;;;;;;;36.87;26.50;95503.18;1739479;81;21094;-60
2021/06/25 11:36:52;;;;;;;26.25;5.30;;;;;;;37.00;27.19;95491.83;1736575;81;21515;-61
2021/06/25 11:39:34;;;;;;;27.67;5.33;;;;;;;37.21;26.80;95499.78;1735793;81;21027;-60
2021/06/25 11:42:09;;;;;;;29.52;5.10;;;;;;;37.38;24.93;95490.22;1724821;81;20983;-60
2021/06/25 11:44:39;;;;;;;26.65;4.87;;;;;;;37.21;24.99;95494.28;1750389;81;21030;-60
2021/06/25 11:47:26;;;;;;;25.97;6.15;;;;;;;37.12;26.05;95491.33;1743312;81;21551;-61
2021/06/25 11:52:30;;;;;;;30.95;6.20;;;;;;;37.03;26.98;95484.55;1729185;81;21026;-60
2021/06/25 11:55:09;;;;;;;32.05;5.53;;;;;;;36.90;26.30;95492.66;1729175;81;21018;-62